sensor_id;sensor_type;location;lat;lon;timestamp;temperature;humidity
55219;DHT22;41088;44.012;20.902;2022-10-16T07:51:23;359.10;2329.60
55219;DHT22;41088;44.012;20.902;2022-10-16T08:13:55;384.70;2329.60
55219;DHT22;41088;44.012;20.902;2022-10-16T08:24:22;409.90;2355.20
55219;DHT22;41088;44.012;20.902;2022-10-16T08:54:29;410.50;2355.20
55219;DHT22;41088;44.012;20.902;2022-10-16T09:37:48;436.00;2355.20
55219;DHT22;41088;44.012;20.902;2022-10-16T15:21:01;487.00;2278.40
55219;DHT22;41088;44.012;20.902;2022-10-16T15:23:27;486.90;2278.40
55219;DHT22;41088;44.012;20.902;2022-10-16T15:25:55;486.70;2278.40
55219;DHT22;41088;44.012;20.902;2022-10-16T15:28:22;486.70;2304.00
55219;DHT22;41088;44.012;20.902;2022-10-16T15:40:43;486.50;2329.60
55219;DHT22;41088;44.012;20.902;2022-10-16T15:43:09;461.60;2329.60
55219;DHT22;41088;44.012;20.902;2022-10-16T15:45:35;461.60;2355.20
55219;DHT22;41088;44.012;20.902;2022-10-16T15:48:01;461.50;2355.20
55219;DHT22;41088;44.012;20.902;2022-10-16T15:50:27;461.40;2380.80
55219;DHT22;41088;44.012;20.902;2022-10-16T15:52:53;461.30;2380.80
55219;DHT22;41088;44.012;20.902;2022-10-16T15:55:19;461.20;2380.80
55219;DHT22;41088;44.012;20.902;2022-10-16T16:00:15;461.10;2380.80
55219;DHT22;41088;44.012;20.902;2022-10-16T16:02:42;461.00;2380.80
55219;DHT22;41088;44.012;20.902;2022-10-16T16:05:10;460.90;2380.80
55219;DHT22;41088;44.012;20.902;2022-10-16T16:07:37;460.80;2380.80
55219;DHT22;41088;44.012;20.902;2022-10-16T16:10:06;460.80;2380.80
55219;DHT22;41088;44.012;20.902;2022-10-16T16:12:33;436.10;2355.20
55219;DHT22;41088;44.012;20.902;2022-10-16T16:14:59;436.00;2355.20
55219;DHT22;41088;44.012;20.902;2022-10-16T16:17:25;436.10;2355.20
55219;DHT22;41088;44.012;20.902;2022-10-16T16:19:51;435.90;2355.20
55219;DHT22;41088;44.012;20.902;2022-10-16T16:22:17;435.80;2355.20
55219;DHT22;41088;44.012;20.902;2022-10-16T16:24:43;435.80;2355.20
55219;DHT22;41088;44.012;20.902;2022-10-16T16:27:09;435.70;2355.20
55219;DHT22;41088;44.012;20.902;2022-10-16T16:29:35;435.70;2355.20
55219;DHT22;41088;44.012;20.902;2022-10-16T16:32:02;435.60;2355.20
55219;DHT22;41088;44.012;20.902;2022-10-16T16:34:28;435.50;2355.20
55219;DHT22;41088;44.012;20.902;2022-10-16T16:36:55;435.50;2355.20
55219;DHT22;41088;44.012;20.902;2022-10-16T16:39:21;435.40;2355.20
55219;DHT22;41088;44.012;20.902;2022-10-16T16:41:47;435.40;2355.20
55219;DHT22;41088;44.012;20.902;2022-10-16T16:46:41;435.30;2355.20
55219;DHT22;41088;44.012;20.902;2022-10-16T16:49:12;435.20;2355.20
55219;DHT22;41088;44.012;20.902;2022-10-16T16:51:38;410.50;2355.20
55219;DHT22;41088;44.012;20.902;2022-10-16T16:54:05;410.50;2355.20
55219;DHT22;41088;44.012;20.902;2022-10-16T16:56:33;410.40;2355.20
55219;DHT22;41088;44.012;20.902;2022-10-16T16:58:59;410.40;2355.20
55219;DHT22;41088;44.012;20.902;2022-10-16T17:01:26;410.30;2355.20
55219;DHT22;41088;44.012;20.902;2022-10-16T17:03:54;410.20;2355.20
55219;DHT22;41088;44.012;20.902;2022-10-16T17:06:22;410.20;2355.20
55219;DHT22;41088;44.012;20.902;2022-10-16T17:08:48;410.10;2355.20
55219;DHT22;41088;44.012;20.902;2022-10-16T17:11:20;410.10;2355.20
55219;DHT22;41088;44.012;20.902;2022-10-16T17:13:47;410.00;2355.20
55219;DHT22;41088;44.012;20.902;2022-10-16T17:16:13;409.90;2355.20
55219;DHT22;41088;44.012;20.902;2022-10-16T17:18:39;409.90;2355.20
55219;DHT22;41088;44.012;20.902;2022-10-16T17:21:08;409.90;2355.20
55219;DHT22;41088;44.012;20.902;2022-10-16T17:23:35;409.80;2355.20
55219;DHT22;41088;44.012;20.902;2022-10-16T17:26:10;409.80;2355.20
55219;DHT22;41088;44.012;20.902;2022-10-16T17:28:37;409.80;2355.20
55219;DHT22;41088;44.012;20.902;2022-10-16T17:31:14;409.70;2355.20
55219;DHT22;41088;44.012;20.902;2022-10-16T17:33:41;409.70;2355.20
55219;DHT22;41088;44.012;20.902;2022-10-16T17:36:07;409.70;2355.20
55219;DHT22;41088;44.012;20.902;2022-10-16T17:38:33;409.70;2355.20
55219;DHT22;41088;44.012;20.902;2022-10-16T17:41:22;409.60;2355.20
55219;DHT22;41088;44.012;20.902;2022-10-16T17:43:50;409.60;2355.20
55219;DHT22;41088;44.012;20.902;2022-10-16T17:46:18;409.60;2355.20
55219;DHT22;41088;44.012;20.902;2022-10-16T17:48:47;384.90;2329.60
55219;DHT22;41088;44.012;20.902;2022-10-16T17:51:15;384.90;2329.60
55219;DHT22;41088;44.012;20.902;2022-10-16T17:53:41;384.90;2329.60
55219;DHT22;41088;44.012;20.902;2022-10-16T17:56:12;384.90;2329.60
55219;DHT22;41088;44.012;20.902;2022-10-16T18:01:20;384.90;2329.60
55219;DHT22;41088;44.012;20.902;2022-10-16T18:03:59;384.60;2329.60
55219;DHT22;41088;44.012;20.902;2022-10-16T18:06:26;384.60;2329.60
55219;DHT22;41088;44.012;20.902;2022-10-16T18:08:52;384.60;2329.60
55219;DHT22;41088;44.012;20.902;2022-10-16T18:11:20;384.60;2329.60
55219;DHT22;41088;44.012;20.902;2022-10-16T18:13:46;384.50;2329.60
55219;DHT22;41088;44.012;20.902;2022-10-16T18:16:13;384.50;2329.60
55219;DHT22;41088;44.012;20.902;2022-10-16T18:18:41;384.50;2329.60
55219;DHT22;41088;44.012;20.902;2022-10-16T18:21:09;384.50;2329.60
55219;DHT22;41088;44.012;20.902;2022-10-16T18:23:36;384.40;2329.60
55219;DHT22;41088;44.012;20.902;2022-10-16T18:26:04;384.40;2329.60
55219;DHT22;41088;44.012;20.902;2022-10-16T18:28:30;384.40;2329.60
55219;DHT22;41088;44.012;20.902;2022-10-16T18:30:58;384.30;2329.60
55219;DHT22;41088;44.012;20.902;2022-10-16T18:33:25;384.30;2329.60
55219;DHT22;41088;44.012;20.902;2022-10-16T18:35:52;384.30;2329.60
55219;DHT22;41088;44.012;20.902;2022-10-16T18:38:18;384.20;2329.60
55219;DHT22;41088;44.012;20.902;2022-10-16T18:40:44;384.20;2329.60
55219;DHT22;41088;44.012;20.902;2022-10-16T18:43:10;384.20;2329.60
55219;DHT22;41088;44.012;20.902;2022-10-16T18:45:36;384.10;2329.60
55219;DHT22;41088;44.012;20.902;2022-10-16T18:48:02;384.10;2329.60
55219;DHT22;41088;44.012;20.902;2022-10-16T18:50:28;384.10;2329.60
55219;DHT22;41088;44.012;20.902;2022-10-16T18:52:53;384.00;2329.60
55219;DHT22;41088;44.012;20.902;2022-10-16T18:55:19;384.00;2329.60
55219;DHT22;41088;44.012;20.902;2022-10-16T18:57:46;384.00;2329.60
55219;DHT22;41088;44.012;20.902;2022-10-16T19:00:12;359.30;2329.60
55219;DHT22;41088;44.012;20.902;2022-10-16T19:02:37;359.20;2329.60
55219;DHT22;41088;44.012;20.902;2022-10-16T19:05:03;359.20;2329.60
55219;DHT22;41088;44.012;20.902;2022-10-16T19:07:30;359.20;2329.60
55219;DHT22;41088;44.012;20.902;2022-10-16T19:09:56;359.10;2329.60
55219;DHT22;41088;44.012;20.902;2022-10-16T19:12:22;359.00;2329.60
55219;DHT22;41088;44.012;20.902;2022-10-16T19:14:48;358.90;2329.60
55219;DHT22;41088;44.012;20.902;2022-10-16T19:17:14;358.90;2329.60
55219;DHT22;41088;44.012;20.902;2022-10-16T19:19:40;358.80;2329.60
55219;DHT22;41088;44.012;20.902;2022-10-16T19:22:06;358.80;2329.60
55219;DHT22;41088;44.012;20.902;2022-10-16T19:24:55;358.70;2329.60
55219;DHT22;41088;44.012;20.902;2022-10-16T19:27:21;358.60;2329.60
55219;DHT22;41088;44.012;20.902;2022-10-16T19:29:47;358.50;2329.60
55219;DHT22;41088;44.012;20.902;2022-10-16T19:32:14;358.40;2329.60
55219;DHT22;41088;44.012;20.902;2022-10-16T19:34:40;333.70;2329.60
55219;DHT22;41088;44.012;20.902;2022-10-16T19:37:06;333.60;2329.60
55219;DHT22;41088;44.012;20.902;2022-10-16T19:39:34;333.50;2329.60
55219;DHT22;41088;44.012;20.902;2022-10-16T19:42:00;333.50;2329.60
55219;DHT22;41088;44.012;20.902;2022-10-16T19:44:26;333.50;2329.60
55219;DHT22;41088;44.012;20.902;2022-10-16T19:46:52;333.40;2329.60
55219;DHT22;41088;44.012;20.902;2022-10-16T19:49:18;333.30;2329.60
55219;DHT22;41088;44.012;20.902;2022-10-16T19:51:47;333.30;2329.60
55219;DHT22;41088;44.012;20.902;2022-10-16T19:54:14;333.30;2329.60
55219;DHT22;41088;44.012;20.902;2022-10-16T19:56:41;333.30;2329.60
55219;DHT22;41088;44.012;20.902;2022-10-16T19:59:08;333.30;2329.60
55219;DHT22;41088;44.012;20.902;2022-10-16T20:01:36;333.30;2329.60
55219;DHT22;41088;44.012;20.902;2022-10-16T20:04:02;333.20;2329.60
55219;DHT22;41088;44.012;20.902;2022-10-16T20:06:27;333.20;2329.60
55219;DHT22;41088;44.012;20.902;2022-10-16T20:08:54;333.10;2329.60
55219;DHT22;41088;44.012;20.902;2022-10-16T20:11:28;333.10;2329.60
55219;DHT22;41088;44.012;20.902;2022-10-16T20:13:54;333.10;2329.60
55219;DHT22;41088;44.012;20.902;2022-10-16T20:16:21;333.10;2329.60
55219;DHT22;41088;44.012;20.902;2022-10-16T20:18:48;333.10;2329.60
55219;DHT22;41088;44.012;20.902;2022-10-16T20:21:17;333.10;2329.60
55219;DHT22;41088;44.012;20.902;2022-10-16T20:23:43;333.00;2329.60
55219;DHT22;41088;44.012;20.902;2022-10-16T20:26:10;333.00;2329.60
55219;DHT22;41088;44.012;20.902;2022-10-16T20:28:40;333.00;2329.60
55219;DHT22;41088;44.012;20.902;2022-10-16T20:31:09;333.00;2329.60
55219;DHT22;41088;44.012;20.902;2022-10-16T20:33:36;333.00;2329.60
55219;DHT22;41088;44.012;20.902;2022-10-16T20:36:02;333.00;2329.60
55219;DHT22;41088;44.012;20.902;2022-10-16T20:38:28;333.00;2329.60
55219;DHT22;41088;44.012;20.902;2022-10-16T20:40:54;332.80;2329.60
55219;DHT22;41088;44.012;20.902;2022-10-16T20:43:20;332.80;2329.60
55219;DHT22;41088;44.012;20.902;2022-10-16T20:45:46;332.80;2329.60
55219;DHT22;41088;44.012;20.902;2022-10-16T20:48:12;308.10;2304.00
55219;DHT22;41088;44.012;20.902;2022-10-16T20:50:40;308.10;2304.00
55219;DHT22;41088;44.012;20.902;2022-10-16T20:53:06;308.10;2304.00
55219;DHT22;41088;44.012;20.902;2022-10-16T20:55:35;308.00;2304.00
55219;DHT22;41088;44.012;20.902;2022-10-16T20:58:01;308.00;2304.00
55219;DHT22;41088;44.012;20.902;2022-10-16T21:00:27;307.80;2304.00
55219;DHT22;41088;44.012;20.902;2022-10-16T21:02:53;307.90;2304.00
55219;DHT22;41088;44.012;20.902;2022-10-16T21:05:19;307.90;2304.00
55219;DHT22;41088;44.012;20.902;2022-10-16T21:07:46;307.90;2304.00
55219;DHT22;41088;44.012;20.902;2022-10-16T21:10:12;308.00;2304.00
55219;DHT22;41088;44.012;20.902;2022-10-16T21:12:38;307.80;2304.00
55219;DHT22;41088;44.012;20.902;2022-10-16T21:15:04;307.90;2304.00
55219;DHT22;41088;44.012;20.902;2022-10-16T21:17:31;307.70;2304.00
55219;DHT22;41088;44.012;20.902;2022-10-16T21:19:57;307.60;2304.00
55219;DHT22;41088;44.012;20.902;2022-10-16T21:22:27;307.60;2304.00
55219;DHT22;41088;44.012;20.902;2022-10-16T21:24:53;307.50;2304.00
55219;DHT22;41088;44.012;20.902;2022-10-16T21:27:19;307.50;2304.00
55219;DHT22;41088;44.012;20.902;2022-10-16T21:29:44;307.50;2304.00
55219;DHT22;41088;44.012;20.902;2022-10-16T21:32:10;307.50;2304.00
55219;DHT22;41088;44.012;20.902;2022-10-16T21:34:37;307.50;2304.00
55219;DHT22;41088;44.012;20.902;2022-10-16T21:37:03;307.50;2304.00
55219;DHT22;41088;44.012;20.902;2022-10-16T21:39:29;307.50;2304.00
55219;DHT22;41088;44.012;20.902;2022-10-16T21:41:56;307.20;2304.00
55219;DHT22;41088;44.012;20.902;2022-10-16T21:44:22;307.20;2304.00
55219;DHT22;41088;44.012;20.902;2022-10-16T21:46:49;307.20;2304.00
55219;DHT22;41088;44.012;20.902;2022-10-16T21:49:17;282.50;2278.40
55219;DHT22;41088;44.012;20.902;2022-10-16T21:51:46;307.20;2304.00
55219;DHT22;41088;44.012;20.902;2022-10-16T21:54:20;282.40;2278.40
55219;DHT22;41088;44.012;20.902;2022-10-16T21:56:46;282.50;2278.40
55219;DHT22;41088;44.012;20.902;2022-10-16T21:59:12;282.50;2278.40
55219;DHT22;41088;44.012;20.902;2022-10-16T22:01:39;282.40;2278.40
55219;DHT22;41088;44.012;20.902;2022-10-16T22:04:05;282.40;2278.40
55219;DHT22;41088;44.012;20.902;2022-10-16T22:06:31;282.40;2278.40
55219;DHT22;41088;44.012;20.902;2022-10-16T22:08:59;282.40;2278.40
55219;DHT22;41088;44.012;20.902;2022-10-16T22:11:34;282.40;2278.40
55219;DHT22;41088;44.012;20.902;2022-10-16T22:14:05;282.40;2278.40
55219;DHT22;41088;44.012;20.902;2022-10-16T22:16:33;282.40;2278.40
55219;DHT22;41088;44.012;20.902;2022-10-16T22:18:59;282.40;2278.40
55219;DHT22;41088;44.012;20.902;2022-10-16T22:21:28;282.40;2278.40
55219;DHT22;41088;44.012;20.902;2022-10-16T22:23:55;282.30;2278.40
55219;DHT22;41088;44.012;20.902;2022-10-16T22:26:22;282.40;2278.40
55219;DHT22;41088;44.012;20.902;2022-10-16T22:28:48;282.40;2278.40
55219;DHT22;41088;44.012;20.902;2022-10-16T22:31:14;282.20;2278.40
55219;DHT22;41088;44.012;20.902;2022-10-16T22:33:41;282.30;2278.40
55219;DHT22;41088;44.012;20.902;2022-10-16T22:36:10;282.30;2278.40
55219;DHT22;41088;44.012;20.902;2022-10-16T22:38:37;282.30;2278.40
55219;DHT22;41088;44.012;20.902;2022-10-16T22:41:09;282.30;2278.40
55219;DHT22;41088;44.012;20.902;2022-10-16T22:43:37;282.30;2278.40
55219;DHT22;41088;44.012;20.902;2022-10-16T22:46:06;282.20;2278.40
55219;DHT22;41088;44.012;20.902;2022-10-16T22:48:33;282.10;2278.40
55219;DHT22;41088;44.012;20.902;2022-10-16T22:50:59;282.10;2278.40
55219;DHT22;41088;44.012;20.902;2022-10-16T22:53:27;282.20;2278.40
55219;DHT22;41088;44.012;20.902;2022-10-16T22:55:53;282.10;2278.40
55219;DHT22;41088;44.012;20.902;2022-10-16T22:58:19;282.10;2278.40
55219;DHT22;41088;44.012;20.902;2022-10-16T23:00:45;282.10;2278.40
55219;DHT22;41088;44.012;20.902;2022-10-16T23:03:11;282.10;2278.40
55219;DHT22;41088;44.012;20.902;2022-10-16T23:05:38;282.30;2278.40
55219;DHT22;41088;44.012;20.902;2022-10-16T23:08:04;282.00;2278.40
55219;DHT22;41088;44.012;20.902;2022-10-16T23:10:38;281.90;2278.40
55219;DHT22;41088;44.012;20.902;2022-10-16T23:13:07;282.10;2278.40
55219;DHT22;41088;44.012;20.902;2022-10-16T23:39:57;281.90;2278.40
55219;DHT22;41088;44.012;20.902;2022-10-16T23:42:24;256.90;2252.80
55219;DHT22;41088;44.012;20.902;2022-10-16T23:44:50;256.80;2252.80
55219;DHT22;41088;44.012;20.902;2022-10-16T23:47:16;256.80;2252.80
55219;DHT22;41088;44.012;20.902;2022-10-16T23:49:42;256.80;2252.80
